Time;durP1;ratioP1;P1;durP2;ratioP2;P2;SDS_P1;SDS_P2;PMS_P1;PMS_P2;Temp;Humidity;BMP_temperature;BMP_pressure;BME280_temperature;BME280_humidity;BME280_pressure;Samples;Min_cycle;Max_cycle;Signal;HPM_P1;HPM_P2
2022/01/05 00:01:17;;;;;;;91.72;45.15;;;7.50;99.90;;;;;;4996690;28;20026;-73
2022/01/05 00:03:43;;;;;;;85.40;43.42;;;7.40;99.90;;;;;;5014486;28;20081;-72
2022/01/05 00:06:08;;;;;;;74.32;39.20;;;7.50;99.90;;;;;;4996100;28;20397;-73
2022/01/05 00:08:34;;;;;;;65.68;36.55;;;7.40;99.90;;;;;;5006559;28;20516;-73
2022/01/05 00:11:00;;;;;;;70.05;36.92;;;7.50;99.90;;;;;;4994199;28;20110;-73
2022/01/05 00:13:25;;;;;;;62.17;34.72;;;7.50;99.90;;;;;;4993406;28;20073;-72
2022/01/05 00:15:51;;;;;;;66.38;34.30;;;7.50;99.90;;;;;;4993519;28;20119;-73
2022/01/05 00:18:17;;;;;;;64.63;33.53;;;7.50;99.90;;;;;;4991940;28;20034;-73
2022/01/05 00:20:43;;;;;;;62.28;32.97;;;7.50;99.90;;;;;;4993063;28;20839;-72
2022/01/05 00:23:10;;;;;;;64.82;34.72;;;7.50;99.90;;;;;;4990974;28;20057;-72
2022/01/05 00:25:35;;;;;;;65.65;36.42;;;7.50;99.90;;;;;;5012361;28;20057;-72
2022/01/05 00:28:01;;;;;;;77.00;38.25;;;7.50;99.90;;;;;;4995681;28;20123;-78
2022/01/05 00:30:27;;;;;;;68.63;36.63;;;7.50;99.90;;;;;;5013676;28;20044;-77
2022/01/05 00:32:53;;;;;;;65.43;33.58;;;7.50;99.90;;;;;;5013772;28;20025;-77
2022/01/05 00:35:19;;;;;;;65.07;32.75;;;7.50;99.90;;;;;;5013768;28;20029;-77
2022/01/05 00:37:44;;;;;;;60.22;31.88;;;7.50;99.90;;;;;;5013777;28;20668;-77
2022/01/05 00:40:11;;;;;;;54.38;30.52;;;7.50;99.90;;;;;;5013161;28;20026;-77
2022/01/05 00:42:36;;;;;;;52.03;29.27;;;7.50;99.90;;;;;;5013003;28;20542;-77
2022/01/05 00:45:03;;;;;;;54.58;31.10;;;7.50;99.90;;;;;;5013351;28;20022;-77
2022/01/05 00:47:29;;;;;;;302.85;149.57;;;7.50;99.90;;;;;;5013747;28;20072;-77
2022/01/05 00:49:54;;;;;;;118.70;66.43;;;7.50;99.90;;;;;;4995882;28;20025;-78
2022/01/05 00:52:20;;;;;;;142.90;76.72;;;7.50;99.90;;;;;;5013554;28;20030;-78
2022/01/05 00:54:46;;;;;;;74.68;41.90;;;7.60;99.90;;;;;;5013682;28;20032;-77
2022/01/05 00:57:12;;;;;;;70.80;38.15;;;7.60;99.90;;;;;;5013661;28;20503;-77
2022/01/05 00:59:38;;;;;;;79.95;39.17;;;7.60;99.90;;;;;;5013441;28;20491;-77
2022/01/05 01:02:04;;;;;;;80.95;40.55;;;7.50;99.90;;;;;;4995982;28;20392;-77
2022/01/05 01:04:30;;;;;;;87.38;41.95;;;7.40;99.90;;;;;;5013518;28;20022;-77
2022/01/05 01:06:56;;;;;;;81.28;40.38;;;7.50;99.90;;;;;;5013430;28;20033;-78
2022/01/05 01:09:21;;;;;;;77.85;40.13;;;7.40;99.90;;;;;;5013303;28;20036;-77
2022/01/05 01:11:47;;;;;;;84.28;40.97;;;7.40;99.90;;;;;;5013539;28;20025;-77
2022/01/05 01:14:13;;;;;;;81.20;38.13;;;7.40;99.90;;;;;;5013319;28;20054;-77
2022/01/05 01:16:39;;;;;;;76.22;38.05;;;7.40;99.90;;;;;;4995861;28;20060;-78
2022/01/05 01:19:05;;;;;;;81.90;37.97;;;7.30;99.90;;;;;;5013216;28;20475;-77
2022/01/05 01:21:30;;;;;;;80.75;40.70;;;7.30;99.90;;;;;;5013356;28;20037;-77
2022/01/05 01:23:56;;;;;;;80.15;38.95;;;7.30;99.90;;;;;;5013329;28;20029;-77
2022/01/05 01:26:28;;;;;;;75.80;38.75;;;7.40;99.90;;;;;;5013142;28;20108;-77
2022/01/05 01:28:54;;;;;;;;;;;7.40;99.90;;;;;;5015020;28;20510;-78
2022/01/05 01:31:20;;;;;;;80.82;39.72;;;7.40;99.90;;;;;;5032915;28;19901;-77
2022/01/05 01:33:46;;;;;;;79.10;40.40;;;7.40;99.90;;;;;;5032973;28;20576;-77
2022/01/05 01:36:12;;;;;;;100.20;42.55;;;7.40;99.90;;;;;;5032917;28;20030;-77
2022/01/05 01:38:38;;;;;;;88.80;41.38;;;7.30;99.90;;;;;;5032700;28;20033;-77
2022/01/05 01:41:04;;;;;;;102.75;44.17;;;7.30;99.90;;;;;;5032821;28;20112;-77
2022/01/05 01:43:30;;;;;;;102.88;45.92;;;7.30;99.90;;;;;;5032805;28;20523;-78
2022/01/05 01:45:56;;;;;;;110.63;46.53;;;7.30;99.90;;;;;;5032747;28;20113;-78
2022/01/05 01:48:22;;;;;;;123.28;49.78;;;7.30;99.90;;;;;;5032814;28;20072;-78
2022/01/05 01:50:48;;;;;;;112.47;47.38;;;7.30;99.90;;;;;;5032661;28;20033;-77
2022/01/05 01:53:13;;;;;;;96.03;45.83;;;7.20;99.90;;;;;;4999397;28;20112;-78
2022/01/05 01:55:40;;;;;;;113.07;49.28;;;7.30;99.90;;;;;;5013015;28;20156;-77
2022/01/05 01:58:07;;;;;;;118.30;47.75;;;7.30;99.90;;;;;;5013017;28;20029;-77
2022/01/05 02:00:33;;;;;;;104.97;46.90;;;7.30;99.90;;;;;;5012844;28;20554;-77
2022/01/05 02:02:59;;;;;;;111.75;46.38;;;7.30;99.90;;;;;;5012866;28;20383;-77
2022/01/05 02:05:25;;;;;;;103.03;46.60;;;7.30;99.90;;;;;;5012915;28;20022;-78
2022/01/05 02:07:51;;;;;;;117.75;47.25;;;7.30;99.90;;;;;;5012750;28;20026;-77
2022/01/05 02:10:17;;;;;;;94.03;44.65;;;7.30;99.90;;;;;;5012074;28;20039;-77
2022/01/05 02:12:44;;;;;;;90.22;42.00;;;7.30;99.90;;;;;;4994037;28;20400;-78
2022/01/05 02:15:10;;;;;;;93.78;42.92;;;7.30;99.90;;;;;;5011589;28;20022;-78
2022/01/05 02:17:50;;;;;;;100.43;42.70;;;7.30;99.90;;;;;;5011650;28;20029;-78
2022/01/05 02:20:20;;;;;;;84.93;42.05;;;7.30;99.90;;;;;;5012439;28;20452;-78
2022/01/05 02:22:47;;;;;;;87.28;40.92;;;7.30;99.90;;;;;;5012618;28;20391;-78
2022/01/05 02:25:14;;;;;;;81.57;40.45;;;7.30;99.90;;;;;;5012788;28;20022;-78
2022/01/05 02:27:41;;;;;;;81.70;39.50;;;7.30;99.90;;;;;;4995010;28;20057;-78
2022/01/05 02:30:12;;;;;;;80.45;38.75;;;7.30;99.90;;;;;;5012601;28;20025;-78
2022/01/05 02:32:38;;;;;;;74.53;37.33;;;7.30;99.90;;;;;;5012731;28;20109;-78
2022/01/05 02:35:05;;;;;;;74.45;37.72;;;7.30;99.90;;;;;;5012647;28;20056;-78
2022/01/05 02:37:31;;;;;;;76.57;37.55;;;7.30;99.90;;;;;;5012529;28;20475;-78
2022/01/05 02:39:57;;;;;;;90.35;41.60;;;7.30;99.90;;;;;;5012381;28;20084;-78
2022/01/05 02:42:27;;;;;;;80.13;38.50;;;7.30;99.90;;;;;;5012408;28;20072;-78
2022/01/05 02:44:54;;;;;;;89.47;40.00;;;7.30;99.90;;;;;;4995079;28;20514;-78
2022/01/05 02:47:20;;;;;;;81.53;39.88;;;7.30;99.90;;;;;;5012571;28;20021;-78
2022/01/05 02:49:46;;;;;;;83.03;38.70;;;7.30;99.90;;;;;;5014366;28;20032;-78
2022/01/05 02:52:13;;;;;;;68.20;34.47;;;7.30;99.90;;;;;;5015738;28;20021;-78
2022/01/05 02:54:39;;;;;;;76.68;39.22;;;7.30;99.90;;;;;;5015806;28;20026;-78
2022/01/05 02:57:05;;;;;;;82.38;37.00;;;7.30;99.90;;;;;;5015894;28;20041;-78
2022/01/05 02:59:30;;;;;;;80.10;38.17;;;7.30;99.90;;;;;;5015698;28;20048;-78
2022/01/05 03:01:56;;;;;;;69.28;35.63;;;7.30;99.90;;;;;;5015598;28;20446;-78
2022/01/05 03:04:23;;;;;;;69.90;34.35;;;7.30;99.90;;;;;;5015398;28;20484;-78
2022/01/05 03:06:49;;;;;;;68.47;34.33;;;7.20;99.90;;;;;;4997856;28;20050;-78
2022/01/05 03:09:14;;;;;;;77.45;36.22;;;7.30;99.90;;;;;;5015310;28;20029;-78
2022/01/05 03:11:40;;;;;;;74.40;35.40;;;7.30;99.90;;;;;;4997444;28;20480;-77
2022/01/05 03:14:06;;;;;;;66.57;32.72;;;7.30;99.90;;;;;;5015144;28;20134;-78
2022/01/05 03:16:31;;;;;;;65.18;32.53;;;7.30;99.90;;;;;;5015433;28;20022;-78
2022/01/05 03:18:57;;;;;;;60.60;32.50;;;7.30;99.90;;;;;;4997675;28;20112;-78
2022/01/05 03:21:23;;;;;;;65.28;33.05;;;7.30;99.90;;;;;;5015470;28;20040;-78
2022/01/05 03:23:48;;;;;;;71.65;34.30;;;7.30;99.90;;;;;;5015291;28;20026;-78
2022/01/05 03:26:14;;;;;;;61.30;31.67;;;7.30;99.90;;;;;;5015300;28;20361;-78
2022/01/05 03:28:40;;;;;;;64.25;31.33;;;7.30;99.90;;;;;;4997748;28;20053;-78
2022/01/05 03:31:06;;;;;;;60.80;30.65;;;7.20;99.90;;;;;;5015079;28;20480;-78
2022/01/05 03:33:31;;;;;;;71.38;32.97;;;7.20;99.90;;;;;;5018932;28;20013;-78
2022/01/05 03:35:58;;;;;;;87.68;36.10;;;7.20;99.90;;;;;;5034615;28;20060;-78
2022/01/05 03:38:27;;;;;;;92.85;37.33;;;7.20;99.90;;;;;;5016944;28;20033;-77
2022/01/05 03:40:53;;;;;;;215.90;41.92;;;7.10;99.90;;;;;;5016947;28;20026;-78
2022/01/05 03:43:19;;;;;;;134.45;39.50;;;7.10;99.90;;;;;;5034757;28;20057;-78
2022/01/05 03:45:45;;;;;;;179.00;44.15;;;7.00;99.90;;;;;;5034664;28;20056;-78
2022/01/05 03:48:12;;;;;;;137.65;44.58;;;7.00;99.90;;;;;;5016915;28;20044;-78
2022/01/05 03:50:39;;;;;;;134.75;42.95;;;7.00;99.90;;;;;;5034634;28;20117;-78
2022/01/05 03:53:06;;;;;;;113.05;40.65;;;7.10;99.90;;;;;;5020018;28;20060;-77
2022/01/05 03:55:34;;;;;;;110.53;38.17;;;7.10;99.90;;;;;;5014782;28;20542;-78
2022/01/05 03:58:01;;;;;;;93.60;41.28;;;7.10;99.90;;;;;;5014687;28;20037;-78
2022/01/05 04:00:29;;;;;;;83.97;37.42;;;7.20;99.90;;;;;;5013594;28;20030;-78
2022/01/05 04:02:59;;;;;;;94.28;39.47;;;7.10;99.90;;;;;;5014742;28;20097;-78
2022/01/05 04:05:25;;;;;;;75.22;36.05;;;7.20;99.90;;;;;;5014590;28;20025;-78
2022/01/05 04:07:50;;;;;;;76.15;36.60;;;7.10;99.90;;;;;;5014730;28;20033;-78
2022/01/05 04:10:18;;;;;;;88.32;36.72;;;7.20;99.90;;;;;;5014360;28;20040;-78
2022/01/05 04:12:44;;;;;;;81.63;36.88;;;7.20;99.90;;;;;;5014302;28;20056;-78
2022/01/05 04:15:10;;;;;;;86.40;37.30;;;7.10;99.90;;;;;;4996916;28;20030;-78
2022/01/05 04:17:36;;;;;;;77.70;36.95;;;7.20;99.90;;;;;;5014505;28;20093;-78
2022/01/05 04:20:03;;;;;;;85.95;37.33;;;7.20;99.90;;;;;;4996574;28;20026;-78
2022/01/05 04:22:29;;;;;;;82.97;36.10;;;7.20;99.90;;;;;;5014186;28;20018;-78
2022/01/05 04:24:55;;;;;;;77.55;36.17;;;7.20;99.90;;;;;;4996553;28;20024;-78
2022/01/05 04:27:21;;;;;;;85.28;36.50;;;7.20;99.90;;;;;;5014053;28;20383;-78
2022/01/05 04:29:47;;;;;;;79.75;34.72;;;7.20;99.90;;;;;;5014072;28;20034;-78
2022/01/05 04:32:13;;;;;;;71.55;34.85;;;7.20;99.90;;;;;;5014046;28;20025;-78
2022/01/05 04:34:39;;;;;;;70.18;34.38;;;7.30;99.90;;;;;;5013970;28;20426;-77
2022/01/05 04:37:06;;;;;;;61.83;31.45;;;7.30;99.90;;;;;;5013993;28;20026;-78
2022/01/05 04:39:33;;;;;;;68.28;31.92;;;7.30;99.90;;;;;;5013885;28;20029;-78
2022/01/05 04:41:59;;;;;;;62.42;31.30;;;7.20;99.90;;;;;;4996363;28;20026;-78
2022/01/05 04:44:24;;;;;;;62.60;32.10;;;7.30;99.90;;;;;;5013941;28;20101;-78
2022/01/05 04:46:50;;;;;;;55.53;29.45;;;7.30;99.90;;;;;;5014000;28;20041;-77
2022/01/05 04:49:16;;;;;;;68.00;32.88;;;7.30;99.90;;;;;;5013811;28;20108;-78
2022/01/05 04:51:42;;;;;;;76.22;33.67;;;7.30;99.90;;;;;;5014014;28;20432;-78
2022/01/05 04:54:08;;;;;;;73.60;34.33;;;7.30;99.90;;;;;;4996239;28;20534;-78
2022/01/05 04:56:33;;;;;;;63.97;33.22;;;7.30;99.90;;;;;;5013765;28;20057;-78
2022/01/05 04:58:59;;;;;;;68.85;35.08;;;7.30;99.90;;;;;;5013561;28;20061;-78
2022/01/05 05:01:25;;;;;;;69.75;34.22;;;7.30;99.90;;;;;;5013662;28;20111;-78
2022/01/05 05:03:51;;;;;;;79.68;33.95;;;7.30;99.90;;;;;;5013603;28;20101;-77
2022/01/05 05:06:17;;;;;;;69.43;33.72;;;7.30;99.90;;;;;;4996051;28;20423;-78
2022/01/05 05:08:43;;;;;;;79.60;34.92;;;7.30;99.90;;;;;;4996005;28;20044;-78
2022/01/05 05:11:08;;;;;;;74.10;33.75;;;7.30;99.90;;;;;;5013597;28;20076;-78
2022/01/05 05:13:34;;;;;;;69.82;35.28;;;7.30;99.90;;;;;;5013074;28;20069;-78
2022/01/05 05:16:01;;;;;;;67.70;33.47;;;7.30;99.90;;;;;;4995792;28;20038;-78
2022/01/05 05:18:27;;;;;;;68.73;33.10;;;7.30;99.90;;;;;;4995773;28;20121;-78
2022/01/05 05:20:53;;;;;;;60.67;30.73;;;7.30;99.90;;;;;;4995741;28;20519;-78
2022/01/05 05:23:19;;;;;;;70.93;32.40;;;7.30;99.90;;;;;;5013362;28;20555;-77
2022/01/05 05:25:44;;;;;;;68.35;31.27;;;7.40;99.90;;;;;;5013406;28;20037;-78
2022/01/05 05:28:10;;;;;;;54.03;29.70;;;7.40;99.90;;;;;;5013282;28;20022;-79
2022/01/05 05:30:36;;;;;;;62.42;31.42;;;7.40;99.90;;;;;;5013267;28;20026;-78
2022/01/05 05:33:03;;;;;;;60.00;31.67;;;7.40;99.90;;;;;;5013214;28;20109;-78
2022/01/05 05:35:29;;;;;;;65.07;33.55;;;7.40;99.90;;;;;;5013231;28;20112;-78
2022/01/05 05:37:55;;;;;;;60.97;30.08;;;7.40;99.90;;;;;;5013214;28;20152;-78
2022/01/05 05:40:22;;;;;;;67.22;31.50;;;7.40;99.90;;;;;;5013045;28;20117;-78
2022/01/05 05:42:48;;;;;;;68.30;34.03;;;7.40;99.90;;;;;;5013277;28;20104;-78
2022/01/05 05:45:14;;;;;;;63.28;31.13;;;7.40;99.90;;;;;;5013103;28;20561;-78
2022/01/05 05:47:40;;;;;;;68.55;31.52;;;7.40;99.90;;;;;;4995703;28;20109;-78
2022/01/05 05:50:06;;;;;;;61.08;31.15;;;7.40;99.90;;;;;;5012894;28;20030;-78
2022/01/05 05:52:32;;;;;;;63.85;32.35;;;7.40;99.90;;;;;;5013015;28;20026;-77
2022/01/05 05:54:58;;;;;;;60.00;31.00;;;7.40;99.90;;;;;;5012991;28;20108;-78
2022/01/05 05:57:24;;;;;;;55.28;27.85;;;7.40;99.90;;;;;;5013055;28;20109;-78
2022/01/05 05:59:49;;;;;;;41.65;21.85;;;7.40;99.90;;;;;;5012824;28;20022;-78
2022/01/05 06:02:15;;;;;;;35.05;18.67;;;7.50;99.90;;;;;;4995404;28;20030;-78
2022/01/05 06:04:41;;;;;;;22.45;13.85;;;7.50;99.90;;;;;;4995317;28;20030;-78
2022/01/05 06:07:07;;;;;;;16.83;10.85;;;7.60;99.90;;;;;;4995285;28;20376;-77
2022/01/05 06:09:33;;;;;;;20.42;12.57;;;7.70;99.90;;;;;;5012861;28;20104;-78
2022/01/05 06:11:58;;;;;;;19.52;11.50;;;7.70;99.90;;;;;;5012760;28;20048;-78
2022/01/05 06:14:24;;;;;;;21.08;11.15;;;7.80;99.90;;;;;;5012953;28;20030;-78
2022/01/05 06:16:50;;;;;;;12.90;8.23;;;7.80;99.90;;;;;;5012808;28;20026;-78
2022/01/05 06:19:15;;;;;;;14.35;8.32;;;7.80;99.90;;;;;;4995201;28;20030;-78
2022/01/05 06:21:43;;;;;;;11.82;7.68;;;7.90;99.90;;;;;;5012745;28;20041;-78
2022/01/05 06:24:09;;;;;;;11.77;6.85;;;7.90;99.90;;;;;;5012946;28;20018;-78
2022/01/05 06:26:34;;;;;;;10.35;6.47;;;8.00;99.90;;;;;;5016124;28;20503;-78
2022/01/05 06:29:00;;;;;;;10.70;6.38;;;8.00;99.90;;;;;;4998678;28;20484;-78
2022/01/05 06:31:26;;;;;;;10.40;6.72;;;8.10;99.90;;;;;;5016368;28;20022;-78
2022/01/05 06:33:51;;;;;;;28.92;14.50;;;8.10;99.90;;;;;;5016364;28;20057;-78
2022/01/05 06:36:17;;;;;;;43.90;17.98;;;8.10;99.90;;;;;;5016369;28;20036;-78
2022/01/05 06:38:43;;;;;;;41.08;19.30;;;8.10;99.90;;;;;;4998498;28;20496;-78
2022/01/05 06:41:08;;;;;;;39.30;20.38;;;8.00;99.90;;;;;;5015917;28;20072;-78
2022/01/05 06:43:34;;;;;;;44.10;21.38;;;8.00;99.90;;;;;;4998603;28;20484;-78
2022/01/05 06:46:00;;;;;;;37.97;19.63;;;8.00;99.90;;;;;;5016126;28;20387;-78
2022/01/05 06:48:26;;;;;;;45.35;22.00;;;8.00;99.90;;;;;;5016149;28;20034;-78
2022/01/05 06:50:52;;;;;;;43.67;22.10;;;7.90;99.90;;;;;;4998368;28;20112;-78
2022/01/05 06:53:17;;;;;;;48.22;23.42;;;7.90;99.90;;;;;;5016001;28;20030;-78
2022/01/05 06:55:43;;;;;;;44.95;23.60;;;7.90;99.90;;;;;;5015882;28;20075;-77
2022/01/05 06:58:09;;;;;;;51.78;24.13;;;7.90;99.90;;;;;;5015935;28;20519;-77
2022/01/05 07:00:35;;;;;;;53.60;24.33;;;7.90;99.90;;;;;;4998125;28;20034;-77
2022/01/05 07:03:00;;;;;;;50.85;25.92;;;7.90;99.90;;;;;;5015702;28;20026;-77
2022/01/05 07:05:26;;;;;;;48.38;24.88;;;7.90;99.90;;;;;;5015692;28;20026;-78
2022/01/05 07:07:52;;;;;;;45.95;24.25;;;7.90;99.90;;;;;;5015641;28;20018;-77
2022/01/05 07:10:18;;;;;;;45.88;23.92;;;7.80;99.90;;;;;;5015545;28;20030;-78
2022/01/05 07:12:44;;;;;;;43.92;23.20;;;7.80;99.90;;;;;;4997639;28;20418;-78
2022/01/05 07:15:11;;;;;;;45.35;22.63;;;7.90;99.90;;;;;;5015325;28;20034;-78
2022/01/05 07:17:37;;;;;;;42.60;21.30;;;7.90;99.90;;;;;;5015320;28;20052;-78
2022/01/05 07:20:05;;;;;;;41.55;20.45;;;7.90;99.90;;;;;;5015430;28;20045;-77
2022/01/05 07:22:31;;;;;;;44.67;21.33;;;7.90;99.90;;;;;;5015244;28;20045;-77
2022/01/05 07:24:57;;;;;;;44.83;22.33;;;7.90;99.90;;;;;;5014676;28;20053;-78
2022/01/05 07:27:23;;;;;;;46.53;23.05;;;7.90;99.90;;;;;;5014645;28;20447;-77
2022/01/05 07:29:49;;;;;;;43.50;20.90;;;7.90;99.90;;;;;;4996794;28;20026;-77
2022/01/05 07:32:15;;;;;;;39.97;18.65;;;7.90;99.90;;;;;;5014612;28;20026;-77
2022/01/05 07:34:41;;;;;;;29.95;16.20;;;7.90;99.90;;;;;;5014432;28;20026;-77
2022/01/05 07:37:07;;;;;;;28.90;15.48;;;7.90;99.90;;;;;;5014643;28;20034;-78
2022/01/05 07:39:33;;;;;;;22.98;13.57;;;8.00;99.90;;;;;;5014723;28;20030;-77
2022/01/05 07:41:58;;;;;;;25.33;12.27;;;8.00;99.90;;;;;;5014952;28;20502;-78
2022/01/05 07:44:24;;;;;;;21.85;13.05;;;8.00;99.90;;;;;;5014950;28;20018;-78
2022/01/05 07:46:50;;;;;;;23.42;11.88;;;8.00;99.90;;;;;;4997501;28;20026;-77
2022/01/05 07:49:16;;;;;;;20.63;12.13;;;8.00;99.90;;;;;;5014956;28;20030;-78
2022/01/05 07:51:41;;;;;;;18.70;10.20;;;8.10;99.90;;;;;;4997349;28;20480;-78
2022/01/05 07:54:07;;;;;;;21.95;10.63;;;8.10;99.90;;;;;;4997702;28;20030;-77
2022/01/05 07:56:33;;;;;;;25.63;13.30;;;8.10;99.90;;;;;;5014861;28;20022;-77
2022/01/05 07:58:58;;;;;;;38.38;18.27;;;8.10;99.90;;;;;;5014281;28;20484;-77
2022/01/05 08:01:25;;;;;;;42.65;20.70;;;8.10;99.90;;;;;;5014890;28;20049;-77
2022/01/05 08:03:51;;;;;;;38.42;18.70;;;8.10;99.90;;;;;;5014742;28;20037;-77
2022/01/05 08:06:17;;;;;;;41.92;19.98;;;8.10;99.90;;;;;;5014692;28;20101;-78
2022/01/05 08:08:44;;;;;;;35.67;17.52;;;8.10;99.90;;;;;;5014603;28;20484;-77
2022/01/05 08:11:11;;;;;;;21.13;11.25;;;8.10;99.90;;;;;;4997002;28;20072;-79
2022/01/05 08:13:37;;;;;;;14.32;8.50;;;8.10;99.90;;;;;;4996748;28;20077;-78
2022/01/05 08:16:03;;;;;;;17.05;8.75;;;8.20;99.90;;;;;;5014520;28;20033;-77
2022/01/05 08:18:28;;;;;;;15.63;9.05;;;8.20;99.90;;;;;;5014084;28;20026;-77
2022/01/05 08:20:55;;;;;;;19.75;11.07;;;8.20;99.90;;;;;;5014450;28;20083;-77
2022/01/05 08:23:22;;;;;;;21.65;9.73;;;8.20;99.90;;;;;;5014396;28;20053;-77
2022/01/05 08:25:50;;;;;;;14.57;9.32;;;8.20;99.90;;;;;;5014391;28;20558;-77
2022/01/05 08:28:17;;;;;;;20.15;12.02;;;8.30;99.90;;;;;;5014224;28;20022;-78
2022/01/05 08:30:46;;;;;;;19.58;9.73;;;8.30;99.90;;;;;;5014159;28;20574;-77
2022/01/05 08:33:14;;;;;;;17.02;8.95;;;8.30;99.90;;;;;;5014283;28;20030;-77
2022/01/05 08:35:40;;;;;;;13.23;7.82;;;8.40;99.90;;;;;;5014250;28;20733;-77
2022/01/05 08:38:06;;;;;;;16.58;8.90;;;8.40;99.90;;;;;;5014015;28;20026;-77
2022/01/05 08:40:35;;;;;;;17.50;9.82;;;8.50;99.90;;;;;;5013830;28;20117;-78
2022/01/05 08:43:03;;;;;;;19.45;9.35;;;8.50;99.90;;;;;;4996371;28;20045;-78
2022/01/05 08:45:29;;;;;;;26.70;11.65;;;8.60;99.90;;;;;;5013916;28;20025;-77
2022/01/05 08:47:56;;;;;;;22.10;11.07;;;8.50;99.90;;;;;;5013282;28;20043;-77
2022/01/05 08:50:24;;;;;;;19.35;10.45;;;8.60;99.90;;;;;;5013789;28;20026;-77
2022/01/05 08:52:51;;;;;;;19.45;10.00;;;8.60;99.90;;;;;;5013876;28;20026;-77
2022/01/05 08:55:19;;;;;;;18.60;10.20;;;8.60;99.90;;;;;;4996217;28;20040;-77
2022/01/05 08:57:45;;;;;;;28.20;14.93;;;8.60;99.90;;;;;;4996057;28;20029;-78
2022/01/05 09:00:12;;;;;;;20.20;12.93;;;8.60;99.90;;;;;;5013527;28;20026;-78
2022/01/05 09:02:38;;;;;;;20.73;11.02;;;8.60;99.90;;;;;;4996082;28;20503;-78
2022/01/05 09:05:05;;;;;;;18.73;11.02;;;8.60;99.90;;;;;;4996062;28;20109;-78
2022/01/05 09:07:31;;;;;;;22.45;10.80;;;8.70;99.90;;;;;;5013281;28;20030;-77
2022/01/05 09:09:57;;;;;;;28.80;12.57;;;8.70;99.90;;;;;;5013172;28;20045;-77
2022/01/05 09:12:23;;;;;;;28.42;13.77;;;8.70;99.90;;;;;;5013156;28;20100;-77
2022/01/05 09:14:49;;;;;;;30.48;15.65;;;8.60;99.90;;;;;;5013414;28;20443;-77
2022/01/05 09:17:14;;;;;;;30.85;14.38;;;8.70;99.90;;;;;;5013421;28;20046;-77
2022/01/05 09:19:42;;;;;;;28.02;13.82;;;8.70;99.90;;;;;;5013284;28;20557;-77
2022/01/05 09:22:09;;;;;;;28.38;13.30;;;8.70;99.90;;;;;;5013419;28;20041;-77
2022/01/05 09:24:36;;;;;;;30.90;16.17;;;8.70;99.90;;;;;;4995720;28;20471;-77
2022/01/05 09:27:04;;;;;;;43.78;21.45;;;8.70;99.90;;;;;;5013346;28;20022;-77
2022/01/05 09:29:31;;;;;;;55.50;27.10;;;8.70;99.90;;;;;;5013144;28;20022;-77
2022/01/05 09:31:58;;;;;;;65.20;29.35;;;8.60;99.90;;;;;;5013356;28;20392;-77
2022/01/05 09:34:24;;;;;;;58.13;27.80;;;8.50;99.90;;;;;;5013236;28;20026;-77
2022/01/05 09:36:57;;;;;;;59.95;26.42;;;8.50;99.90;;;;;;5013244;28;20451;-77
2022/01/05 09:42:07;;;;;;;51.60;25.70;;;8.40;99.90;;;;;;5013397;28;20517;-77
2022/01/05 09:44:43;;;;;;;54.80;25.00;;;8.40;99.90;;;;;;5013165;28;20018;-77
2022/01/05 09:47:21;;;;;;;62.08;27.60;;;8.40;99.90;;;;;;4995445;28;20121;-77
2022/01/05 09:49:59;;;;;;;52.13;25.77;;;8.40;99.90;;;;;;5013055;28;20034;-77
2022/01/05 09:52:25;;;;;;;42.00;24.27;;;8.40;99.90;;;;;;4995437;28;20084;-77
2022/01/05 09:54:52;;;;;;;47.15;24.52;;;8.40;99.90;;;;;;5013109;28;20038;-77
2022/01/05 09:57:19;;;;;;;49.95;25.58;;;8.40;99.90;;;;;;5013074;28;20041;-77
2022/01/05 09:59:50;;;;;;;53.40;25.45;;;8.40;99.90;;;;;;5016540;28;20068;-77
2022/01/05 10:02:16;;;;;;;47.35;24.23;;;8.40;99.90;;;;;;4999570;28;20035;-78
2022/01/05 10:04:43;;;;;;;53.10;24.90;;;8.40;99.90;;;;;;5017235;28;20156;-78
2022/01/05 10:07:09;;;;;;;49.10;24.80;;;8.40;99.90;;;;;;5017005;28;20037;-79
2022/01/05 10:09:39;;;;;;;53.60;27.17;;;8.40;99.90;;;;;;5017005;28;20041;-78
2022/01/05 10:12:06;;;;;;;49.78;23.70;;;8.40;99.90;;;;;;5016703;28;20032;-78
2022/01/05 10:14:32;;;;;;;49.17;22.55;;;8.40;99.90;;;;;;4999332;28;20030;-78
2022/01/05 10:17:11;;;;;;;42.42;21.80;;;8.40;99.90;;;;;;5016729;28;20030;-78
2022/01/05 10:19:37;;;;;;;47.40;24.40;;;8.40;99.90;;;;;;5016762;28;20112;-78
2022/01/05 10:22:24;;;;;;;41.55;22.27;;;8.50;99.90;;;;;;4999023;28;20080;-78
2022/01/05 10:24:50;;;;;;;43.25;22.15;;;8.50;99.90;;;;;;5016332;28;20049;-78
2022/01/05 10:27:21;;;;;;;40.55;19.33;;;8.50;99.90;;;;;;4998965;28;20045;-78
2022/01/05 10:30:04;;;;;;;39.95;20.55;;;8.60;99.90;;;;;;5016417;28;20034;-78
2022/01/05 10:32:33;;;;;;;41.70;21.42;;;8.60;99.90;;;;;;5016576;28;20025;-78
2022/01/05 10:35:01;;;;;;;41.17;20.33;;;8.60;99.90;;;;;;5016507;28;20049;-78
2022/01/05 10:37:27;;;;;;;37.53;20.27;;;8.60;99.90;;;;;;5016535;28;20034;-79
2022/01/05 10:40:19;;;;;;;40.47;20.48;;;8.60;99.90;;;;;;4998569;28;20030;-78
2022/01/05 10:42:46;;;;;;;38.47;20.58;;;8.60;99.90;;;;;;5016386;28;20022;-78
2022/01/05 10:45:15;;;;;;;45.30;21.98;;;8.60;99.90;;;;;;5016321;28;20018;-78
2022/01/05 10:47:41;;;;;;;44.15;23.35;;;8.70;99.90;;;;;;5016291;28;20022;-78
2022/01/05 10:50:18;;;;;;;42.10;22.65;;;8.70;99.90;;;;;;5015884;28;20040;-78
2022/01/05 10:52:55;;;;;;;41.50;19.25;;;8.70;99.90;;;;;;5003670;28;20085;-78
2022/01/05 10:55:24;;;;;;;41.05;19.00;;;8.70;99.90;;;;;;4995408;28;20568;-78
2022/01/05 10:58:02;;;;;;;40.03;20.45;;;8.70;99.90;;;;;;4977955;28;20492;-78
2022/01/05 11:00:33;;;;;;;43.92;21.35;;;8.70;99.90;;;;;;4995101;28;20466;-78
2022/01/05 11:03:00;;;;;;;48.90;23.10;;;8.80;99.90;;;;;;4996130;28;20038;-78
2022/01/05 11:05:26;;;;;;;50.17;24.13;;;8.80;99.90;;;;;;4978848;28;20026;-78
2022/01/05 11:08:06;;;;;;;51.72;25.75;;;8.80;99.90;;;;;;4996339;28;20029;-78
2022/01/05 11:10:31;;;;;;;60.60;25.08;;;8.80;99.90;;;;;;4995511;28;20030;-78
2022/01/05 11:12:57;;;;;;;55.97;25.00;;;8.80;99.90;;;;;;4978619;28;20046;-78
2022/01/05 11:15:34;;;;;;;56.78;26.15;;;8.80;99.90;;;;;;4995985;28;20369;-78
2022/01/05 11:18:10;;;;;;;71.22;28.40;;;8.80;99.90;;;;;;4996122;28;20058;-78
2022/01/05 11:21:01;;;;;;;62.78;28.60;;;8.80;99.90;;;;;;4978642;28;20039;-78
2022/01/05 11:23:30;;;;;;;58.55;26.90;;;8.80;99.90;;;;;;4995840;28;20407;-77
2022/01/05 11:25:57;;;;;;;45.22;24.25;;;8.80;99.90;;;;;;5015645;28;20014;-78
2022/01/05 11:28:25;;;;;;;56.47;27.20;;;8.80;99.90;;;;;;5015512;28;20029;-78
2022/01/05 11:30:53;;;;;;;51.15;25.08;;;8.80;99.90;;;;;;5015377;28;20030;-78
2022/01/05 11:33:20;;;;;;;53.35;26.15;;;8.70;99.90;;;;;;4997812;28;20033;-79
2022/01/05 11:35:46;;;;;;;67.75;27.52;;;8.70;99.90;;;;;;5032136;28;20025;-78
2022/01/05 11:38:13;;;;;;;60.38;28.08;;;8.70;99.90;;;;;;5035064;28;20029;-78
2022/01/05 11:40:48;;;;;;;71.45;28.02;;;8.80;99.90;;;;;;5034923;28;20036;-79
2022/01/05 11:43:21;;;;;;;71.40;29.73;;;8.70;99.90;;;;;;5017176;28;20021;-79
2022/01/05 11:45:47;;;;;;;74.97;30.63;;;8.80;99.90;;;;;;5035058;28;20029;-78
2022/01/05 11:48:24;;;;;;;66.32;28.92;;;8.80;99.90;;;;;;5034858;28;20036;-78
2022/01/05 11:50:59;;;;;;;57.92;25.70;;;8.70;99.90;;;;;;5017167;28;20037;-78
2022/01/05 11:53:45;;;;;;;61.72;28.48;;;8.80;99.90;;;;;;5017081;28;20021;-78
2022/01/05 11:56:22;;;;;;;68.35;30.17;;;8.80;99.90;;;;;;5013044;28;20033;-79
2022/01/05 11:58:59;;;;;;;80.40;33.53;;;8.80;99.90;;;;;;5011822;28;20023;-78
2022/01/05 12:01:36;;;;;;;67.50;32.50;;;8.80;99.90;;;;;;4995044;28;20483;-78
2022/01/05 12:04:05;;;;;;;71.47;33.13;;;8.80;99.90;;;;;;5012477;28;20041;-78
2022/01/05 12:06:32;;;;;;;63.92;30.63;;;8.80;99.90;;;;;;5013179;28;20503;-78
2022/01/05 12:09:04;;;;;;;74.25;33.00;;;8.80;99.90;;;;;;5012652;28;20053;-78
2022/01/05 12:11:38;;;;;;;73.55;32.08;;;8.80;99.90;;;;;;4995045;28;20026;-78
2022/01/05 12:14:27;;;;;;;62.17;28.60;;;8.80;99.90;;;;;;5012459;28;20046;-78
2022/01/05 12:16:58;;;;;;;66.32;31.33;;;8.80;99.90;;;;;;5005941;28;20096;-73
2022/01/05 12:19:29;;;;;;;81.90;32.20;;;8.80;99.90;;;;;;5013783;28;20137;-73
2022/01/05 12:21:57;;;;;;;65.65;29.45;;;8.80;99.90;;;;;;5002405;28;20061;-73
2022/01/05 12:25:00;;;;;;;71.38;28.50;;;8.80;99.90;;;;;;4987920;28;20109;-73
2022/01/05 12:27:26;;;;;;;65.25;28.45;;;8.80;99.90;;;;;;4996295;28;20041;-73
2022/01/05 12:29:54;;;;;;;65.32;27.67;;;8.80;99.90;;;;;;4996296;28;20120;-73
2022/01/05 12:32:37;;;;;;;57.85;26.05;;;8.80;99.90;;;;;;4996541;28;20065;-73
2022/01/05 12:35:08;;;;;;;77.35;32.05;;;8.80;99.90;;;;;;5013990;28;20037;-73
2022/01/05 12:37:47;;;;;;;29.00;17.02;;;8.80;99.90;;;;;;5013954;28;20030;-73
2022/01/05 12:40:35;;;;;;;6.10;5.50;;;8.70;99.90;;;;;;5013689;28;20543;-73
2022/01/05 12:43:10;;;;;;;2.65;2.47;;;8.70;99.90;;;;;;5014018;28;20026;-74